sensor_id;sensor_type;location;lat;lon;timestamp;P1;durP1;ratioP1;P2;durP2;ratioP2
10013;SDS011;45684;48.358;10.746;2023-07-31T00:02:04;10.63;;;10.13;;
10013;SDS011;45684;48.358;10.746;2023-07-31T00:04:32;12.83;;;12.23;;
10013;SDS011;45684;48.358;10.746;2023-07-31T00:07:00;12.53;;;12.00;;
10013;SDS011;45684;48.358;10.746;2023-07-31T00:09:32;13.50;;;12.90;;
10013;SDS011;45684;48.358;10.746;2023-07-31T00:11:59;13.90;;;13.20;;
10013;SDS011;45684;48.358;10.746;2023-07-31T00:14:27;14.07;;;13.17;;
10013;SDS011;45684;48.358;10.746;2023-07-31T00:16:55;15.13;;;14.27;;
10013;SDS011;45684;48.358;10.746;2023-07-31T00:19:23;16.73;;;15.83;;
10013;SDS011;45684;48.358;10.746;2023-07-31T00:21:51;15.73;;;14.63;;
10013;SDS011;45684;48.358;10.746;2023-07-31T00:24:18;14.63;;;13.83;;
10013;SDS011;45684;48.358;10.746;2023-07-31T00:26:48;14.27;;;13.47;;
10013;SDS011;45684;48.358;10.746;2023-07-31T00:29:15;12.53;;;11.93;;
10013;SDS011;45684;48.358;10.746;2023-07-31T00:31:43;14.53;;;13.63;;
10013;SDS011;45684;48.358;10.746;2023-07-31T00:34:11;16.43;;;15.63;;
10013;SDS011;45684;48.358;10.746;2023-07-31T00:36:39;16.63;;;15.80;;
10013;SDS011;45684;48.358;10.746;2023-07-31T00:39:07;11.67;;;11.17;;
10013;SDS011;45684;48.358;10.746;2023-07-31T00:41:35;14.30;;;13.47;;
10013;SDS011;45684;48.358;10.746;2023-07-31T00:44:04;10.00;;;9.50;;
10013;SDS011;45684;48.358;10.746;2023-07-31T00:46:32;14.17;;;13.37;;
10013;SDS011;45684;48.358;10.746;2023-07-31T00:49:01;14.27;;;13.47;;
10013;SDS011;45684;48.358;10.746;2023-07-31T00:51:29;16.20;;;15.30;;
10013;SDS011;45684;48.358;10.746;2023-07-31T00:53:57;15.93;;;15.13;;
10013;SDS011;45684;48.358;10.746;2023-07-31T00:56:25;15.47;;;14.57;;
10013;SDS011;45684;48.358;10.746;2023-07-31T00:58:55;17.67;;;16.77;;
10013;SDS011;45684;48.358;10.746;2023-07-31T01:01:24;15.83;;;15.07;;
10013;SDS011;45684;48.358;10.746;2023-07-31T01:03:52;17.33;;;16.43;;
10013;SDS011;45684;48.358;10.746;2023-07-31T01:06:23;15.67;;;14.77;;
10013;SDS011;45684;48.358;10.746;2023-07-31T01:08:58;16.33;;;15.63;;
10013;SDS011;45684;48.358;10.746;2023-07-31T01:11:30;15.70;;;15.00;;
10013;SDS011;45684;48.358;10.746;2023-07-31T01:14:00;16.73;;;16.00;;
10013;SDS011;45684;48.358;10.746;2023-07-31T01:16:30;15.90;;;15.20;;
10013;SDS011;45684;48.358;10.746;2023-07-31T01:18:58;17.73;;;16.87;;
10013;SDS011;45684;48.358;10.746;2023-07-31T01:21:33;17.23;;;16.40;;
10013;SDS011;45684;48.358;10.746;2023-07-31T01:24:20;14.07;;;13.37;;
10013;SDS011;45684;48.358;10.746;2023-07-31T01:26:53;16.23;;;15.23;;
10013;SDS011;45684;48.358;10.746;2023-07-31T01:29:27;14.20;;;13.53;;
10013;SDS011;45684;48.358;10.746;2023-07-31T01:32:03;15.07;;;14.27;;
10013;SDS011;45684;48.358;10.746;2023-07-31T01:34:33;14.90;;;13.87;;
10013;SDS011;45684;48.358;10.746;2023-07-31T01:37:03;14.77;;;14.00;;
10013;SDS011;45684;48.358;10.746;2023-07-31T01:39:31;14.03;;;13.23;;
10013;SDS011;45684;48.358;10.746;2023-07-31T01:42:00;15.97;;;15.27;;
10013;SDS011;45684;48.358;10.746;2023-07-31T01:44:28;15.23;;;14.27;;
10013;SDS011;45684;48.358;10.746;2023-07-31T01:46:56;11.87;;;11.27;;
10013;SDS011;45684;48.358;10.746;2023-07-31T01:49:26;11.47;;;10.77;;
10013;SDS011;45684;48.358;10.746;2023-07-31T01:51:54;12.93;;;12.33;;
10013;SDS011;45684;48.358;10.746;2023-07-31T01:54:22;11.83;;;11.23;;
10013;SDS011;45684;48.358;10.746;2023-07-31T01:56:50;11.70;;;11.13;;
10013;SDS011;45684;48.358;10.746;2023-07-31T01:59:19;12.23;;;11.53;;
10013;SDS011;45684;48.358;10.746;2023-07-31T02:01:47;12.37;;;11.67;;
10013;SDS011;45684;48.358;10.746;2023-07-31T02:04:17;10.90;;;10.40;;
10013;SDS011;45684;48.358;10.746;2023-07-31T02:06:45;12.90;;;12.20;;
10013;SDS011;45684;48.358;10.746;2023-07-31T02:09:13;12.97;;;12.13;;
10013;SDS011;45684;48.358;10.746;2023-07-31T02:11:40;11.93;;;11.33;;
10013;SDS011;45684;48.358;10.746;2023-07-31T02:14:09;11.63;;;11.20;;
10013;SDS011;45684;48.358;10.746;2023-07-31T02:16:38;12.10;;;11.53;;
10013;SDS011;45684;48.358;10.746;2023-07-31T02:19:06;11.83;;;11.20;;
10013;SDS011;45684;48.358;10.746;2023-07-31T02:21:34;11.70;;;11.10;;
10013;SDS011;45684;48.358;10.746;2023-07-31T02:24:02;12.00;;;11.17;;
10013;SDS011;45684;48.358;10.746;2023-07-31T02:26:30;10.63;;;9.93;;
10013;SDS011;45684;48.358;10.746;2023-07-31T02:28:57;10.30;;;9.60;;
10013;SDS011;45684;48.358;10.746;2023-07-31T02:31:25;10.77;;;10.23;;
10013;SDS011;45684;48.358;10.746;2023-07-31T02:33:55;10.90;;;10.30;;
10013;SDS011;45684;48.358;10.746;2023-07-31T02:36:22;10.33;;;9.83;;
10013;SDS011;45684;48.358;10.746;2023-07-31T02:38:50;9.90;;;9.40;;
10013;SDS011;45684;48.358;10.746;2023-07-31T02:41:18;10.40;;;9.90;;
10013;SDS011;45684;48.358;10.746;2023-07-31T02:43:46;10.93;;;10.13;;
10013;SDS011;45684;48.358;10.746;2023-07-31T02:46:13;10.27;;;9.67;;
10013;SDS011;45684;48.358;10.746;2023-07-31T02:48:41;9.37;;;8.87;;
10013;SDS011;45684;48.358;10.746;2023-07-31T02:51:11;9.40;;;8.80;;
10013;SDS011;45684;48.358;10.746;2023-07-31T02:53:38;9.17;;;8.67;;
10013;SDS011;45684;48.358;10.746;2023-07-31T02:56:07;9.90;;;9.23;;
10013;SDS011;45684;48.358;10.746;2023-07-31T02:58:35;9.50;;;8.83;;
10013;SDS011;45684;48.358;10.746;2023-07-31T03:01:02;10.00;;;9.60;;
10013;SDS011;45684;48.358;10.746;2023-07-31T03:03:30;10.10;;;9.60;;
10013;SDS011;45684;48.358;10.746;2023-07-31T03:05:58;10.53;;;9.93;;
10013;SDS011;45684;48.358;10.746;2023-07-31T03:08:27;10.23;;;9.47;;
10013;SDS011;45684;48.358;10.746;2023-07-31T03:10:56;10.57;;;9.97;;
10013;SDS011;45684;48.358;10.746;2023-07-31T03:13:24;10.43;;;9.90;;
10013;SDS011;45684;48.358;10.746;2023-07-31T03:15:52;13.20;;;12.30;;
10013;SDS011;45684;48.358;10.746;2023-07-31T03:18:20;16.07;;;15.00;;
10013;SDS011;45684;48.358;10.746;2023-07-31T03:20:47;12.43;;;11.77;;
10013;SDS011;45684;48.358;10.746;2023-07-31T03:23:15;12.87;;;12.13;;
10013;SDS011;45684;48.358;10.746;2023-07-31T03:25:56;14.90;;;14.20;;
10013;SDS011;45684;48.358;10.746;2023-07-31T03:28:27;13.50;;;12.80;;
10013;SDS011;45684;48.358;10.746;2023-07-31T03:30:55;13.37;;;12.67;;
10013;SDS011;45684;48.358;10.746;2023-07-31T03:33:23;16.33;;;15.63;;
10013;SDS011;45684;48.358;10.746;2023-07-31T03:35:51;15.83;;;14.90;;
10013;SDS011;45684;48.358;10.746;2023-07-31T03:38:20;11.03;;;10.33;;
10013;SDS011;45684;48.358;10.746;2023-07-31T03:40:48;9.87;;;9.17;;
10013;SDS011;45684;48.358;10.746;2023-07-31T03:43:17;9.93;;;9.43;;
10013;SDS011;45684;48.358;10.746;2023-07-31T03:45:46;12.67;;;11.97;;
10013;SDS011;45684;48.358;10.746;2023-07-31T03:48:14;11.23;;;10.73;;
10013;SDS011;45684;48.358;10.746;2023-07-31T03:50:42;12.67;;;11.93;;
10013;SDS011;45684;48.358;10.746;2023-07-31T03:53:10;23.20;;;22.20;;
10013;SDS011;45684;48.358;10.746;2023-07-31T03:55:38;27.77;;;26.23;;
10013;SDS011;45684;48.358;10.746;2023-07-31T03:58:06;28.67;;;27.30;;
10013;SDS011;45684;48.358;10.746;2023-07-31T04:00:35;30.40;;;28.87;;
10013;SDS011;45684;48.358;10.746;2023-07-31T04:03:03;29.07;;;27.77;;
10013;SDS011;45684;48.358;10.746;2023-07-31T04:05:31;21.87;;;20.60;;
10013;SDS011;45684;48.358;10.746;2023-07-31T04:07:59;28.80;;;27.43;;
10013;SDS011;45684;48.358;10.746;2023-07-31T04:10:27;22.43;;;21.43;;
10013;SDS011;45684;48.358;10.746;2023-07-31T04:12:55;16.90;;;16.20;;
10013;SDS011;45684;48.358;10.746;2023-07-31T04:15:23;20.23;;;18.97;;
10013;SDS011;45684;48.358;10.746;2023-07-31T04:17:52;13.20;;;12.50;;
10013;SDS011;45684;48.358;10.746;2023-07-31T04:20:20;18.93;;;18.03;;
10013;SDS011;45684;48.358;10.746;2023-07-31T04:22:48;19.10;;;18.17;;
10013;SDS011;45684;48.358;10.746;2023-07-31T04:25:15;18.93;;;17.93;;
10013;SDS011;45684;48.358;10.746;2023-07-31T04:27:43;23.27;;;22.17;;
10013;SDS011;45684;48.358;10.746;2023-07-31T04:30:11;27.77;;;26.50;;
10013;SDS011;45684;48.358;10.746;2023-07-31T04:32:39;27.27;;;26.13;;
10013;SDS011;45684;48.358;10.746;2023-07-31T04:35:08;33.90;;;32.27;;
10013;SDS011;45684;48.358;10.746;2023-07-31T04:37:36;34.80;;;33.23;;
10013;SDS011;45684;48.358;10.746;2023-07-31T04:40:05;36.37;;;34.90;;
10013;SDS011;45684;48.358;10.746;2023-07-31T04:42:34;36.27;;;34.63;;
10013;SDS011;45684;48.358;10.746;2023-07-31T04:45:02;33.63;;;32.10;;
10013;SDS011;45684;48.358;10.746;2023-07-31T04:47:31;28.73;;;27.10;;
10013;SDS011;45684;48.358;10.746;2023-07-31T04:49:59;27.03;;;25.57;;
10013;SDS011;45684;48.358;10.746;2023-07-31T04:52:28;29.83;;;28.47;;
10013;SDS011;45684;48.358;10.746;2023-07-31T04:54:56;17.27;;;16.40;;
10013;SDS011;45684;48.358;10.746;2023-07-31T04:57:24;12.30;;;11.70;;
10013;SDS011;45684;48.358;10.746;2023-07-31T04:59:51;15.10;;;14.37;;
10013;SDS011;45684;48.358;10.746;2023-07-31T05:02:19;12.33;;;11.73;;
10013;SDS011;45684;48.358;10.746;2023-07-31T05:04:47;14.83;;;14.10;;
10013;SDS011;45684;48.358;10.746;2023-07-31T05:07:15;17.67;;;16.87;;
10013;SDS011;45684;48.358;10.746;2023-07-31T05:09:45;19.57;;;18.73;;
10013;SDS011;45684;48.358;10.746;2023-07-31T05:12:13;17.90;;;17.10;;
10013;SDS011;45684;48.358;10.746;2023-07-31T05:14:40;17.93;;;17.07;;
10013;SDS011;45684;48.358;10.746;2023-07-31T05:17:08;17.63;;;16.73;;
10013;SDS011;45684;48.358;10.746;2023-07-31T05:19:36;18.53;;;17.57;;
10013;SDS011;45684;48.358;10.746;2023-07-31T05:22:04;18.57;;;17.63;;
10013;SDS011;45684;48.358;10.746;2023-07-31T05:24:32;14.87;;;13.97;;
10013;SDS011;45684;48.358;10.746;2023-07-31T05:27:01;17.47;;;16.47;;
10013;SDS011;45684;48.358;10.746;2023-07-31T05:29:30;13.57;;;12.77;;
10013;SDS011;45684;48.358;10.746;2023-07-31T05:31:58;15.27;;;14.27;;
10013;SDS011;45684;48.358;10.746;2023-07-31T05:34:25;10.27;;;9.57;;
10013;SDS011;45684;48.358;10.746;2023-07-31T05:36:53;7.13;;;6.73;;
10013;SDS011;45684;48.358;10.746;2023-07-31T05:39:21;6.63;;;6.23;;
10013;SDS011;45684;48.358;10.746;2023-07-31T05:41:49;6.47;;;6.03;;
10013;SDS011;45684;48.358;10.746;2023-07-31T05:44:18;6.80;;;6.20;;
10013;SDS011;45684;48.358;10.746;2023-07-31T05:46:46;6.90;;;6.40;;
10013;SDS011;45684;48.358;10.746;2023-07-31T05:49:14;7.37;;;6.77;;
10013;SDS011;45684;48.358;10.746;2023-07-31T05:51:42;7.50;;;6.77;;
10013;SDS011;45684;48.358;10.746;2023-07-31T05:54:10;7.03;;;6.50;;
10013;SDS011;45684;48.358;10.746;2023-07-31T05:56:37;7.43;;;6.93;;
10013;SDS011;45684;48.358;10.746;2023-07-31T05:59:06;6.73;;;6.33;;
10013;SDS011;45684;48.358;10.746;2023-07-31T06:01:35;6.93;;;6.47;;
10013;SDS011;45684;48.358;10.746;2023-07-31T06:04:03;7.50;;;6.80;;
10013;SDS011;45684;48.358;10.746;2023-07-31T06:06:31;6.83;;;6.33;;
10013;SDS011;45684;48.358;10.746;2023-07-31T06:08:59;7.03;;;6.63;;
10013;SDS011;45684;48.358;10.746;2023-07-31T06:11:26;6.67;;;6.17;;
10013;SDS011;45684;48.358;10.746;2023-07-31T06:13:54;7.03;;;6.53;;
10013;SDS011;45684;48.358;10.746;2023-07-31T06:16:22;7.10;;;6.60;;
10013;SDS011;45684;48.358;10.746;2023-07-31T06:18:52;7.23;;;6.83;;
10013;SDS011;45684;48.358;10.746;2023-07-31T06:21:19;7.50;;;6.97;;
10013;SDS011;45684;48.358;10.746;2023-07-31T06:23:47;7.37;;;6.90;;
10013;SDS011;45684;48.358;10.746;2023-07-31T06:26:15;6.30;;;5.90;;
10013;SDS011;45684;48.358;10.746;2023-07-31T06:28:43;6.57;;;6.07;;
10013;SDS011;45684;48.358;10.746;2023-07-31T06:31:11;7.50;;;6.73;;
10013;SDS011;45684;48.358;10.746;2023-07-31T06:33:39;5.83;;;5.40;;
10013;SDS011;45684;48.358;10.746;2023-07-31T06:36:08;5.30;;;4.90;;
10013;SDS011;45684;48.358;10.746;2023-07-31T06:38:36;5.07;;;4.67;;
10013;SDS011;45684;48.358;10.746;2023-07-31T06:41:04;5.53;;;5.23;;
10013;SDS011;45684;48.358;10.746;2023-07-31T06:43:32;5.23;;;4.93;;
10013;SDS011;45684;48.358;10.746;2023-07-31T06:46:00;5.40;;;5.07;;
10013;SDS011;45684;48.358;10.746;2023-07-31T06:48:32;5.50;;;5.00;;
10013;SDS011;45684;48.358;10.746;2023-07-31T06:51:00;6.80;;;5.10;;
10013;SDS011;45684;48.358;10.746;2023-07-31T06:53:29;4.90;;;4.50;;
10013;SDS011;45684;48.358;10.746;2023-07-31T06:55:57;5.30;;;4.80;;
10013;SDS011;45684;48.358;10.746;2023-07-31T06:58:25;5.10;;;4.80;;
10013;SDS011;45684;48.358;10.746;2023-07-31T07:00:53;5.43;;;5.03;;
10013;SDS011;45684;48.358;10.746;2023-07-31T07:03:21;5.20;;;4.90;;
10013;SDS011;45684;48.358;10.746;2023-07-31T07:05:49;5.20;;;4.90;;
10013;SDS011;45684;48.358;10.746;2023-07-31T07:08:17;5.10;;;4.70;;
10013;SDS011;45684;48.358;10.746;2023-07-31T07:10:46;5.13;;;4.83;;
10013;SDS011;45684;48.358;10.746;2023-07-31T07:13:14;5.00;;;4.70;;
10013;SDS011;45684;48.358;10.746;2023-07-31T07:15:42;5.10;;;4.57;;
10013;SDS011;45684;48.358;10.746;2023-07-31T07:18:10;5.10;;;4.80;;
10013;SDS011;45684;48.358;10.746;2023-07-31T07:20:38;4.80;;;4.50;;
10013;SDS011;45684;48.358;10.746;2023-07-31T07:23:06;5.20;;;4.70;;
10013;SDS011;45684;48.358;10.746;2023-07-31T07:25:37;5.17;;;4.70;;
10013;SDS011;45684;48.358;10.746;2023-07-31T07:28:06;5.53;;;5.03;;
10013;SDS011;45684;48.358;10.746;2023-07-31T07:30:34;5.07;;;4.77;;
10013;SDS011;45684;48.358;10.746;2023-07-31T07:33:02;5.20;;;4.83;;
10013;SDS011;45684;48.358;10.746;2023-07-31T07:35:32;5.17;;;4.77;;
10013;SDS011;45684;48.358;10.746;2023-07-31T07:38:01;5.30;;;4.80;;
10013;SDS011;45684;48.358;10.746;2023-07-31T07:40:29;5.20;;;4.80;;
10013;SDS011;45684;48.358;10.746;2023-07-31T07:42:57;4.77;;;4.47;;
10013;SDS011;45684;48.358;10.746;2023-07-31T07:45:27;4.90;;;4.60;;
10013;SDS011;45684;48.358;10.746;2023-07-31T07:47:55;5.30;;;4.90;;
10013;SDS011;45684;48.358;10.746;2023-07-31T07:50:24;5.37;;;4.90;;
10013;SDS011;45684;48.358;10.746;2023-07-31T07:52:52;5.60;;;5.10;;
10013;SDS011;45684;48.358;10.746;2023-07-31T07:55:20;5.40;;;5.03;;
10013;SDS011;45684;48.358;10.746;2023-07-31T07:57:47;4.90;;;4.60;;
10013;SDS011;45684;48.358;10.746;2023-07-31T08:00:16;4.80;;;4.50;;
10013;SDS011;45684;48.358;10.746;2023-07-31T08:02:46;4.93;;;4.60;;
10013;SDS011;45684;48.358;10.746;2023-07-31T08:05:14;4.90;;;4.60;;
10013;SDS011;45684;48.358;10.746;2023-07-31T08:07:43;5.00;;;4.60;;
10013;SDS011;45684;48.358;10.746;2023-07-31T08:10:11;5.27;;;4.73;;
10013;SDS011;45684;48.358;10.746;2023-07-31T08:12:39;5.00;;;4.70;;
10013;SDS011;45684;48.358;10.746;2023-07-31T08:15:07;5.77;;;4.60;;
10013;SDS011;45684;48.358;10.746;2023-07-31T08:17:35;5.77;;;4.87;;
10013;SDS011;45684;48.358;10.746;2023-07-31T08:20:05;4.80;;;4.50;;
10013;SDS011;45684;48.358;10.746;2023-07-31T08:22:34;4.93;;;4.57;;
10013;SDS011;45684;48.358;10.746;2023-07-31T08:25:02;5.20;;;4.80;;
10013;SDS011;45684;48.358;10.746;2023-07-31T08:27:31;5.27;;;4.87;;
10013;SDS011;45684;48.358;10.746;2023-07-31T08:29:59;5.27;;;4.87;;
10013;SDS011;45684;48.358;10.746;2023-07-31T08:32:27;5.70;;;5.20;;
10013;SDS011;45684;48.358;10.746;2023-07-31T08:34:55;5.10;;;4.73;;
10013;SDS011;45684;48.358;10.746;2023-07-31T08:37:24;4.93;;;4.57;;
10013;SDS011;45684;48.358;10.746;2023-07-31T08:39:52;5.32;;;4.78;;
10013;SDS011;45684;48.358;10.746;2023-07-31T08:42:20;5.03;;;4.72;;
10013;SDS011;45684;48.358;10.746;2023-07-31T08:44:48;5.00;;;4.60;;
10013;SDS011;45684;48.358;10.746;2023-07-31T08:47:17;5.40;;;4.90;;
10013;SDS011;45684;48.358;10.746;2023-07-31T08:49:46;5.30;;;4.90;;
10013;SDS011;45684;48.358;10.746;2023-07-31T08:52:15;5.07;;;4.68;;
10013;SDS011;45684;48.358;10.746;2023-07-31T08:54:44;5.35;;;4.90;;
10013;SDS011;45684;48.358;10.746;2023-07-31T08:57:12;5.05;;;4.65;;
10013;SDS011;45684;48.358;10.746;2023-07-31T08:59:40;5.63;;;5.20;;
10013;SDS011;45684;48.358;10.746;2023-07-31T09:02:09;5.22;;;4.93;;
10013;SDS011;45684;48.358;10.746;2023-07-31T09:04:38;5.40;;;5.00;;
10013;SDS011;45684;48.358;10.746;2023-07-31T09:07:06;5.00;;;4.70;;
10013;SDS011;45684;48.358;10.746;2023-07-31T09:09:35;5.20;;;4.80;;
10013;SDS011;45684;48.358;10.746;2023-07-31T09:12:05;5.10;;;4.70;;
10013;SDS011;45684;48.358;10.746;2023-07-31T09:14:34;5.13;;;4.73;;
10013;SDS011;45684;48.358;10.746;2023-07-31T09:17:03;5.50;;;5.10;;
10013;SDS011;45684;48.358;10.746;2023-07-31T09:19:32;5.97;;;5.38;;
10013;SDS011;45684;48.358;10.746;2023-07-31T09:22:03;5.22;;;4.82;;
10013;SDS011;45684;48.358;10.746;2023-07-31T09:24:32;5.15;;;4.65;;
10013;SDS011;45684;48.358;10.746;2023-07-31T09:27:01;5.93;;;5.45;;
10013;SDS011;45684;48.358;10.746;2023-07-31T09:29:30;5.28;;;4.88;;
10013;SDS011;45684;48.358;10.746;2023-07-31T09:31:58;4.85;;;4.53;;
10013;SDS011;45684;48.358;10.746;2023-07-31T09:34:30;5.05;;;4.75;;
10013;SDS011;45684;48.358;10.746;2023-07-31T09:37:04;5.35;;;4.95;;
10013;SDS011;45684;48.358;10.746;2023-07-31T09:39:32;5.20;;;4.68;;
10013;SDS011;45684;48.358;10.746;2023-07-31T09:42:12;5.20;;;4.80;;
10013;SDS011;45684;48.358;10.746;2023-07-31T09:44:41;5.30;;;4.90;;
10013;SDS011;45684;48.358;10.746;2023-07-31T09:47:20;5.70;;;5.30;;
10013;SDS011;45684;48.358;10.746;2023-07-31T09:49:50;6.78;;;4.95;;
10013;SDS011;45684;48.358;10.746;2023-07-31T09:52:18;5.10;;;4.60;;
10013;SDS011;45684;48.358;10.746;2023-07-31T09:54:46;5.53;;;5.13;;
10013;SDS011;45684;48.358;10.746;2023-07-31T09:57:14;5.32;;;4.82;;
10013;SDS011;45684;48.358;10.746;2023-07-31T09:59:46;5.80;;;4.70;;
10013;SDS011;45684;48.358;10.746;2023-07-31T10:02:20;5.22;;;4.93;;
10013;SDS011;45684;48.358;10.746;2023-07-31T10:04:49;5.35;;;5.05;;
10013;SDS011;45684;48.358;10.746;2023-07-31T10:07:18;5.78;;;5.30;;
10013;SDS011;45684;48.358;10.746;2023-07-31T10:09:47;6.35;;;4.85;;
10013;SDS011;45684;48.358;10.746;2023-07-31T10:12:17;5.00;;;4.68;;
10013;SDS011;45684;48.358;10.746;2023-07-31T10:14:48;5.57;;;5.20;;
10013;SDS011;45684;48.358;10.746;2023-07-31T10:17:16;5.32;;;5.00;;
10013;SDS011;45684;48.358;10.746;2023-07-31T10:19:46;5.20;;;4.80;;
10013;SDS011;45684;48.358;10.746;2023-07-31T10:22:15;4.85;;;4.43;;
10013;SDS011;45684;48.358;10.746;2023-07-31T10:24:45;4.80;;;4.60;;
10013;SDS011;45684;48.358;10.746;2023-07-31T10:27:14;5.30;;;4.85;;
10013;SDS011;45684;48.358;10.746;2023-07-31T10:29:43;5.85;;;5.15;;
10013;SDS011;45684;48.358;10.746;2023-07-31T10:32:15;4.97;;;4.57;;
10013;SDS011;45684;48.358;10.746;2023-07-31T10:34:44;5.03;;;4.55;;
10013;SDS011;45684;48.358;10.746;2023-07-31T10:37:20;5.07;;;4.68;;
10013;SDS011;45684;48.358;10.746;2023-07-31T10:39:56;5.10;;;4.60;;
10013;SDS011;45684;48.358;10.746;2023-07-31T10:42:32;5.00;;;4.60;;
10013;SDS011;45684;48.358;10.746;2023-07-31T10:45:02;5.03;;;4.72;;
10013;SDS011;45684;48.358;10.746;2023-07-31T10:47:37;5.18;;;4.75;;
10013;SDS011;45684;48.358;10.746;2023-07-31T10:50:12;4.82;;;4.50;;
10013;SDS011;45684;48.358;10.746;2023-07-31T10:52:44;4.90;;;4.60;;
10013;SDS011;45684;48.358;10.746;2023-07-31T10:55:15;5.22;;;4.78;;
10013;SDS011;45684;48.358;10.746;2023-07-31T10:57:44;5.88;;;5.30;;
10013;SDS011;45684;48.358;10.746;2023-07-31T11:00:20;5.30;;;4.80;;
10013;SDS011;45684;48.358;10.746;2023-07-31T11:02:58;5.35;;;4.90;;
10013;SDS011;45684;48.358;10.746;2023-07-31T11:08:20;4.70;;;4.40;;
10013;SDS011;45684;48.358;10.746;2023-07-31T11:10:50;4.90;;;4.50;;
10013;SDS011;45684;48.358;10.746;2023-07-31T11:13:31;4.85;;;4.60;;
10013;SDS011;45684;48.358;10.746;2023-07-31T11:16:00;5.30;;;4.90;;
10013;SDS011;45684;48.358;10.746;2023-07-31T11:18:29;4.90;;;4.63;;
10013;SDS011;45684;48.358;10.746;2023-07-31T11:20:57;5.32;;;4.93;;
10013;SDS011;45684;48.358;10.746;2023-07-31T11:23:25;5.30;;;4.90;;
10013;SDS011;45684;48.358;10.746;2023-07-31T11:25:53;5.25;;;4.85;;
10013;SDS011;45684;48.358;10.746;2023-07-31T11:28:30;5.57;;;5.10;;
10013;SDS011;45684;48.358;10.746;2023-07-31T11:31:00;5.32;;;4.95;;
10013;SDS011;45684;48.358;10.746;2023-07-31T11:33:30;4.80;;;4.40;;
10013;SDS011;45684;48.358;10.746;2023-07-31T11:35:58;5.35;;;4.90;;
10013;SDS011;45684;48.358;10.746;2023-07-31T11:38:26;4.45;;;4.25;;
10013;SDS011;45684;48.358;10.746;2023-07-31T11:40:56;5.22;;;4.75;;
10013;SDS011;45684;48.358;10.746;2023-07-31T11:43:24;5.57;;;5.10;;
10013;SDS011;45684;48.358;10.746;2023-07-31T11:45:54;5.10;;;4.80;;
10013;SDS011;45684;48.358;10.746;2023-07-31T11:48:23;5.50;;;5.00;;
10013;SDS011;45684;48.358;10.746;2023-07-31T11:50:58;5.05;;;4.80;;
10013;SDS011;45684;48.358;10.746;2023-07-31T11:53:27;5.40;;;5.00;;
10013;SDS011;45684;48.358;10.746;2023-07-31T11:55:59;4.95;;;4.65;;
10013;SDS011;45684;48.358;10.746;2023-07-31T11:58:29;5.30;;;4.80;;
10013;SDS011;45684;48.358;10.746;2023-07-31T12:00:58;5.18;;;4.88;;
10013;SDS011;45684;48.358;10.746;2023-07-31T12:03:26;5.18;;;4.80;;
10013;SDS011;45684;48.358;10.746;2023-07-31T12:05:56;4.63;;;4.32;;
10013;SDS011;45684;48.358;10.746;2023-07-31T12:08:25;4.90;;;4.50;;
10013;SDS011;45684;48.358;10.746;2023-07-31T12:10:54;4.40;;;4.20;;
10013;SDS011;45684;48.358;10.746;2023-07-31T12:13:30;4.75;;;4.43;;
10013;SDS011;45684;48.358;10.746;2023-07-31T12:15:59;4.50;;;4.30;;
10013;SDS011;45684;48.358;10.746;2023-07-31T12:18:30;4.85;;;4.43;;
10013;SDS011;45684;48.358;10.746;2023-07-31T12:21:03;4.95;;;4.50;;
10013;SDS011;45684;48.358;10.746;2023-07-31T12:23:33;4.53;;;4.30;;
10013;SDS011;45684;48.358;10.746;2023-07-31T12:26:03;4.93;;;4.53;;
10013;SDS011;45684;48.358;10.746;2023-07-31T12:28:34;4.80;;;4.50;;
10013;SDS011;45684;48.358;10.746;2023-07-31T12:31:03;4.78;;;4.40;;
10013;SDS011;45684;48.358;10.746;2023-07-31T12:33:32;4.40;;;4.10;;
10013;SDS011;45684;48.358;10.746;2023-07-31T12:36:03;4.68;;;4.28;;
10013;SDS011;45684;48.358;10.746;2023-07-31T12:38:34;4.90;;;4.50;;
10013;SDS011;45684;48.358;10.746;2023-07-31T12:41:02;4.82;;;4.53;;
10013;SDS011;45684;48.358;10.746;2023-07-31T12:43:30;5.60;;;5.10;;
10013;SDS011;45684;48.358;10.746;2023-07-31T12:45:58;5.30;;;5.00;;
10013;SDS011;45684;48.358;10.746;2023-07-31T12:48:26;4.47;;;4.05;;
10013;SDS011;45684;48.358;10.746;2023-07-31T12:50:54;4.25;;;3.95;;
10013;SDS011;45684;48.358;10.746;2023-07-31T12:53:23;4.50;;;4.30;;
10013;SDS011;45684;48.358;10.746;2023-07-31T12:55:51;4.72;;;4.45;;
10013;SDS011;45684;48.358;10.746;2023-07-31T12:58:19;4.32;;;4.13;;
10013;SDS011;45684;48.358;10.746;2023-07-31T13:00:47;4.15;;;3.80;;
10013;SDS011;45684;48.358;10.746;2023-07-31T13:03:15;4.70;;;4.40;;
10013;SDS011;45684;48.358;10.746;2023-07-31T13:05:43;4.45;;;4.20;;
10013;SDS011;45684;48.358;10.746;2023-07-31T13:08:11;4.50;;;4.30;;
10013;SDS011;45684;48.358;10.746;2023-07-31T13:10:41;4.60;;;4.20;;
10013;SDS011;45684;48.358;10.746;2023-07-31T13:13:09;4.97;;;4.65;;
10013;SDS011;45684;48.358;10.746;2023-07-31T13:15:37;5.03;;;4.60;;
10013;SDS011;45684;48.358;10.746;2023-07-31T13:18:05;5.20;;;4.65;;
10013;SDS011;45684;48.358;10.746;2023-07-31T13:20:33;5.50;;;5.10;;
10013;SDS011;45684;48.358;10.746;2023-07-31T13:23:01;5.50;;;5.10;;
10013;SDS011;45684;48.358;10.746;2023-07-31T13:25:29;5.93;;;5.55;;
10013;SDS011;45684;48.358;10.746;2023-07-31T13:27:58;5.60;;;5.20;;
10013;SDS011;45684;48.358;10.746;2023-07-31T13:30:29;5.00;;;4.50;;
10013;SDS011;45684;48.358;10.746;2023-07-31T13:32:57;4.78;;;4.38;;
10013;SDS011;45684;48.358;10.746;2023-07-31T13:35:25;4.53;;;4.20;;
10013;SDS011;45684;48.358;10.746;2023-07-31T13:37:52;5.03;;;4.63;;
10013;SDS011;45684;48.358;10.746;2023-07-31T13:40:21;4.78;;;4.47;;
10013;SDS011;45684;48.358;10.746;2023-07-31T13:42:49;5.32;;;4.70;;
10013;SDS011;45684;48.358;10.746;2023-07-31T13:45:18;5.15;;;4.68;;
10013;SDS011;45684;48.358;10.746;2023-07-31T13:47:46;5.13;;;4.78;;
10013;SDS011;45684;48.358;10.746;2023-07-31T13:50:14;6.05;;;4.97;;
10013;SDS011;45684;48.358;10.746;2023-07-31T13:52:43;4.50;;;4.20;;
10013;SDS011;45684;48.358;10.746;2023-07-31T13:55:11;4.88;;;4.53;;
10013;SDS011;45684;48.358;10.746;2023-07-31T13:57:38;4.80;;;4.40;;
10013;SDS011;45684;48.358;10.746;2023-07-31T14:00:07;5.28;;;4.78;;
10013;SDS011;45684;48.358;10.746;2023-07-31T14:02:37;6.63;;;4.78;;
10013;SDS011;45684;48.358;10.746;2023-07-31T14:05:05;5.25;;;4.85;;
10013;SDS011;45684;48.358;10.746;2023-07-31T14:07:34;5.47;;;4.97;;
10013;SDS011;45684;48.358;10.746;2023-07-31T14:10:02;5.55;;;4.93;;
10013;SDS011;45684;48.358;10.746;2023-07-31T14:12:30;5.78;;;5.38;;
10013;SDS011;45684;48.358;10.746;2023-07-31T14:15:08;5.60;;;5.20;;
10013;SDS011;45684;48.358;10.746;2023-07-31T14:17:38;5.53;;;5.03;;
10013;SDS011;45684;48.358;10.746;2023-07-31T14:20:07;5.40;;;5.10;;
10013;SDS011;45684;48.358;10.746;2023-07-31T14:22:36;5.53;;;4.70;;
10013;SDS011;45684;48.358;10.746;2023-07-31T14:25:05;5.35;;;4.90;;
10013;SDS011;45684;48.358;10.746;2023-07-31T14:27:33;5.38;;;5.07;;
10013;SDS011;45684;48.358;10.746;2023-07-31T14:30:01;5.70;;;5.20;;
10013;SDS011;45684;48.358;10.746;2023-07-31T14:32:29;5.25;;;4.85;;
10013;SDS011;45684;48.358;10.746;2023-07-31T14:34:58;5.88;;;4.90;;
10013;SDS011;45684;48.358;10.746;2023-07-31T14:37:26;5.55;;;5.15;;
10013;SDS011;45684;48.358;10.746;2023-07-31T14:40:04;5.40;;;5.00;;